作者lastblade008 (James)
看板VideoCard
标题[闲聊]PCB Breakdown:Powercolor RX480 RedDevil
时间Fri Sep 23 12:12:42 2016
国外分析解说显示卡PCB元件
https://goo.gl/zoQ2Yx
这影片一出引起广泛讨论,
英听不好,可以看YOUTUBE开字幕来看,
评论:VRM => The Worst
後续..
来自PowerColor的回应?
https://goo.gl/C0KP4R
PCB Breakdown也有解说480 G1及480 Strix,
RX480 Strix有给予好评,用料诚意十足,
480G1 VRM用料比公版还差(注意:这是PCB Breakdown於影片中提到的)
--
※ 发信站: 批踢踢实业坊(ptt.cc), 来自: 1.167.1.65
※ 文章网址: https://webptt.com/cn.aspx?n=bbs/VideoCard/M.1474603966.A.E33.html
1F:推 vobor: G心不意外 1060背板可以偷成塑胶材质 网址缩一下喔 09/23 13:33
2F:推 Syg: G心太夸张了@@ 09/23 13:38
3F:推 windrain0317: 我记得是Strix RX480 Great的评价 09/23 13:48
4F:→ windrain0317: G1先让reviewr失望,直到後来看到红魔的惨况 09/23 14:05
是的,PCB Breakdown批评红魔的VRM,不适合超频使用,不过,类似的PCB红魔470没这问题?
6F:→ windrain0317: 怎麽感觉後来回覆有点小酸 09/23 14:33
7F:→ shana0706: 好奇问下 所以470用料最好是那张? 09/23 17:49
8F:推 leo91531: 可是ASUS跑分是最低的,这就让人怀疑功耗动了什麽手脚 09/23 18:00
你说的是ASUS 470吧~ 这篇说的是480喔...
※ 编辑: lastblade008 (223.139.19.252), 09/23/2016 18:20:39
9F:推 sai25: 酸民不意外 最烂的牌子正确就不酸了 09/23 20:28
10F:推 KotoriCute: 惠惠这麽雷? 09/24 01:27
11F:推 a09117034: 宅男专用卡当然雷 09/24 12:38
12F:→ icekiba: 所以威力彩是最烂的品牌?? 09/24 15:55
13F:推 howard10141: QQ那微星呢...... 09/24 18:05
刚好有一则REDDIT讨论各480的推荐
https://goo.gl/64rhdy
不懂国内3人成虎,黑XXX.... 市场大使用者多的国外讨论比较有参考价值
14F:推 Bob9154: SAPPHIRE呢 QQ 09/24 19:17
15F:推 vobor: 蓝宝应该不错吧? 超最高耶 09/24 19:31
16F:→ windrain0317: 说烂也不是,就身为一张散热弄那麽好的RX 480 09/24 19:49
17F:→ windrain0317: 结果其他地方不适合拿来超,作者很失望这样 09/24 19:49
18F:→ vobor: 这张散热应该还是输双风扇的Gaming X 09/24 20:04
19F:→ Cubelia: 就不适合狂超,尤其是撼讯还释出解锁版VBIOS 09/24 20:26
20F:→ Cubelia: 一般使用或小超是没问题的 09/24 20:27
21F:→ windrain0317: 不过身为威力彩头牌,这样真的很落漆就是 09/24 20:34
22F:→ windrain0317: 其实作者算期望落空,他评完ASUS就特别点名期待这张 09/24 20:36
23F:→ kuma660224: 470红魔=芸芸是6+1相,480红魔=惠惠也是6+1. 09/25 00:30
24F:→ kuma660224: 但480(公版6+1相)吃得电比470还大。 09/25 00:30
25F:→ kuma660224: 对470(公版4+1)来说,芸芸是给好给满的超频卡。 09/25 00:30
26F:→ kuma660224: 对定位超频卡的惠惠来说,就显得电供用料普普。 09/25 00:30
27F:→ kuma660224: 大概470晶片数量大,比较不在意480吧。 09/25 00:32
28F:→ kuma660224: 制程良率问题,470变成北极星10的实质主力。 09/25 00:33
29F:→ kuma660224: 不超频,供电都够,惠惠等於只是加强散热的公版供电卡 09/25 00:36
30F:→ kuma660224: 。 09/25 00:36
31F:→ kuma660224: 芸芸才是明显用料超越其他低价470的卡, 09/25 00:37
32F:→ kuma660224: 因为它还有一张省成本的470红龙。 09/25 00:37
33F:推 windrain0317: 楼上你有听完他在讲啥嘛?他着眼点不是几相电源 09/25 03:43
34F:→ windrain0317: 作者明明在靠邀VRM怎麽挑那麽鸟的东西 09/25 03:47
对,他不是要说几相问题,而是VRM元件问题,
以ASUS 480来说,有提到一相有60A 比 公版40A 好,
480 G1 则是30A 比 公版差,
所以6相一定比较好吗?以ASUS选用的VRM料件,4相供电能力就大於某卡6相。
至於红魔470会有疑问,是因为480较高阶都被人批评VRM元件,较低阶难道会用比较好的吗?
35F:→ windrain0317: 他的六相就是比公版,甚至G1能扛的还要少很多 09/25 03:59
36F:→ windrain0317: 供电跟他评论无关,是讲红魔VRM不是给高电流用的 09/25 04:20
37F:→ windrain0317: 一样供电一样超,红魔VRM就是比别家有更高烧掉机会 09/25 04:22
38F:→ windrain0317: 另外,作者是用极端超频者观点去看,一般使用者倒是 09/25 04:38
39F:→ windrain0317: 不用太在意那麽细节就是 09/25 04:38
40F:推 cpr104: 预设使用下都没问题啦 卡商也不会希望常出保固 09/25 10:14
※ 编辑: lastblade008 (1.167.1.65), 09/25/2016 11:08:36
41F:→ windrain0317: 另外nitro应该还好,上次qhua弄到core顶到302W 09/25 11:37
42F:→ windrain0317: 依照影片作者说法,红魔core吃到300W可能就烧vrm了 09/25 11:38
43F:→ vobor: 没这麽扯… 那只是瞬间最大功耗 09/25 11:44
44F:→ vobor: 又不是长时间维持302w 你以为是390x喔 09/25 11:45
45F:→ kuma660224: PL全开只有50%也吃不到250..... 09/25 12:00
46F:→ kuma660224: 他说状况是超高电压,再极限降温去超频,还跑fur 09/25 12:01
47F:→ kuma660224: 480的6相没有比公板多,但每相比较少。 09/25 12:03
48F:→ kuma660224: 470则不是这种情形。数量较多可弥补单颗不足 09/25 12:03
49F:→ kuma660224: 热量也比较分散。 09/25 12:03
50F:→ windrain0317: 你没看影片作者解释嘛,他的bios开下去pl是450W 09/25 12:06
51F:→ windrain0317: 所以就说他是用极端超频者观点去看,然後给评价 09/25 12:07
52F:→ kuma660224: 重点是极端。 09/25 12:08
53F:→ windrain0317: 瞬间最大功耗干上去,vrm就可能直接爆掉了阿 09/25 12:08
54F:→ kuma660224: 而且还要换bios...不然原本有限制。 09/25 12:09
55F:推 vobor: 你要吃到这麽多 核心时脉早就破1400了 09/25 12:09
56F:→ kuma660224: 他提到的电压还远超过一般超频者。 09/25 12:09
57F:→ windrain0317: 日常当然差异不大,但Powercolor相较起来就是省在这 09/25 12:10
58F:→ vobor: 瞬间功耗不会让vrm挂掉 是长时间高负载才会 09/25 12:10
59F:→ kuma660224: 即使普通超频也无法到它哪那程度。 09/25 12:10
60F:→ windrain0317: 怎麽不会爆,作者玩法就是要350W core draw 09/25 12:14
61F:→ windrain0317: 在那种情况下,已经超过红魔vrm specs能承受的 09/25 12:14
62F:→ windrain0317: 日常使用,省电料补散热也没啥不好,只是比起来弱了 09/25 12:18
63F:→ windrain0317: 尤其他评了Strix 480,完全就是很明显对比 09/25 12:26
64F:推 vobor: …你听不懂 极限超频才会长时间350w Core draw 一般轻度超 09/25 12:27
65F:→ vobor: 频哪会 09/25 12:27
66F:→ vobor: 你以为还在用390x喔? 09/25 12:27
67F:→ windrain0317: 你才搞错吧,我就说日常根本没差了 09/25 12:28
68F:→ vobor: 对啦 极限超频我还是推Strix 只是红魔绝对没这麽不堪啦 09/25 12:28
69F:→ vobor: 那就好啦 STRIX用料最猛这没争议啦 09/25 12:28
70F:→ windrain0317: 当然没有,省电料换散热对日常使用者反而更有感阿 09/25 12:29
71F:→ windrain0317: 你电料省但能应付一般使用者,把钱花在散热器也OK阿 09/25 12:30
72F:→ windrain0317: 一张卡用料不会只是单纯电料等级,就这样而已 09/25 12:36
73F:→ windrain0317: 就像公版480电料等级好,其他就输了 09/25 12:38
74F:→ kuma660224: 那不是问题,就像一般轮胎不耐极限魔改250km/hr 09/25 12:48
75F:→ kuma660224: 其实一般车迷狂操也不可能跑到那速度。 09/25 12:48
76F:→ windrain0317: 那为什麽有别家能上好料让买家爽咧? 09/25 13:52
77F:→ windrain0317: 那要这样说就不用出不同版本了,反正都不会爆 09/25 13:52
78F:→ windrain0317: 愈高阶的卡,愈多人重视有的没的,不管用不用得到 09/25 14:00
79F:→ pipi5867: 我到觉得480也不是什麽高阶卡(逃 09/25 14:38
80F:→ vobor: 其实480会出红魔我挺意外的就是XD 09/25 14:38
81F:→ windrain0317: 说不定哪天蓝宝出个毒药喔 09/25 15:16
82F:→ vobor: 我也在猜 因为他的480 Nitro+其实还有一相的空间 09/25 17:24
83F:→ kuma660224: 出不同版本不全为了供电吧,那只是因素之一 09/25 20:21
84F:→ kuma660224: 散热气几根导管,鳍片多少多长, 09/25 20:22
85F:→ kuma660224: 风扇1颗2颗3颗,直径转速差异.... 09/25 20:22
86F:→ kuma660224: 这些对一般人追求高规版其实更重要。 09/25 20:23
87F:→ kuma660224: 毕竟oc通用算式,耗电大致与电压平方相关。 09/25 20:24
88F:→ kuma660224: 靠疯狂加压来超频其实效率真的很差。 09/25 20:25
89F:→ kuma660224: 高规卡能拉PL维持时脉,能压低温避免降频 09/25 20:35
90F:→ kuma660224: 顶多预设小超,是较正常实用的方向。 09/25 20:35
91F:→ windrain0317: 依照你想法,ROG/OCF这类主机版根本没意义 09/25 22:27
92F:→ windrain0317: 今天要当作头牌的卡,期待他撒料顶级很正常 09/25 22:28
93F:→ Litfal: 你看看挂ROG的版子比正常版子贵多少钱... 09/26 13:19
94F:→ kuma660224: 要散热好避免降频怎会没意义。 09/26 16:40
95F:→ windrain0317: 算了,你的立论就是能用不会挂就好,其他不用在意 09/26 16:57
96F:→ windrain0317: 这种对岸最爱玩,显示卡外观散热弄漂亮,里面各种偷 09/26 16:59
97F:→ windrain0317: 是阿,反正看不到也没人在意,日常用也不会挂 09/26 17:00
98F:→ windrain0317: 价钱放便宜一点就好,反正有人会买单 09/26 17:01
99F:→ windrain0317: 有兴趣你看HIS 4850 ICEQ这系列,就是很好案例 09/26 17:03
100F:→ windrain0317: 日常使用当然都没问题,就是买的人会可能在意 09/26 17:03
101F:→ windrain0317: ref design相比就是有cost down,但不影响使用 09/26 17:05
102F:→ windrain0317: 直接说啦,它这用料出现在 红龙/铠甲猫/ASUS Turbo 09/26 17:16
103F:→ windrain0317: 完全没有啥好说,为了卡便宜当然要牺牲一点 09/26 17:16
104F:→ windrain0317: 结果放在一张看起来那麽棒的红魔上?真的就失望而已 09/26 17:19
105F:→ kuma660224: 不是能用就好,而是那几乎不可能是瓶颈。 09/27 12:50
106F:→ kuma660224: 所以一般评测根本不在乎那部分,更在意风扇散热 09/27 12:50
107F:→ kuma660224: 北极星早在吃到那高电压前就撞PL降频了。 09/27 12:52
108F:→ kuma660224: 反而低电压比较能维持效能,较不撞PL 09/27 12:52
109F:→ windrain0317: 你高兴就好,我只能说威力彩没做顶卡的天份 09/27 16:35
110F:→ windrain0317: 回去看看人家蓝宝怎麽弄他家旗舰卡你就懂了 09/27 16:35
111F:→ windrain0317: 当然你不把红魔当顶卡,当作costdown卡就当我没说 09/27 16:42
112F:推 PTTX5: 撼讯那价位... 09/28 17:20